首页
METAR-TAF:

METAR-TAF

机场 :

Rocky Mount-Wilson Regional Airport

Rocky Mount, 北卡罗来纳州, 美国

纬度: 35-51-18N, 经度: 077-53-35W, 海拔: 49米

当前天气观测

该预报发布于34分钟前的23:53 UTC
风速9节,风向
温度 22°C
湿度 83%
气压 1020 hPa
能見度: 16.1公里
阴天层高于1100英尺

METAR: KRWI 232353Z AUTO 36009KT 10SM OVC011 22/19 A3013 RMK AO2 SLP200 T02170194 10294 20217 51015

时间: 20:27 (00:27 UTC)

预报

该预报发布于1小时和7分钟前的23:20 UTC
预报有效从24日的 00点(UTC)到 24日的 24点(UTC)
风速8节,风向
能見度: 10公里
散云层高于4000英尺
阴天层高于7000英尺
从 24日的 0300点(UTC)
风速4节,风向多变
能見度: 10公里
多云层高于6000英尺
从 24日的 0800点(UTC)
风速7节,风向东北
能見度: 9.7公里
多云层高于2500英尺
轻雾
短暂存在
从 24日的 10点(UTC)到 24日的 14点(UTC)
能見度: 8.0公里
多云层高于800英尺
轻雾
从 24日的 1400点(UTC)
风速6节,风向东转东北
能見度: 10公里
多云层高于1500英尺
从 24日的 1600点(UTC)
风速9节,风向
能見度: 10公里
散云层高于3000英尺
多云层高于6000英尺
小雨

TAF: KRWI 232320Z 2400/2424 35008KT P6SM SCT040 OVC070 FM240300 VRB04KT P6SM BKN060 FM240800 04007KT 6SM BR BKN025 TEMPO 2410/2414 5SM BR BKN008 FM241400 06006KT P6SM BKN015 FM241600 09009KT P6SM -RA SCT030 BKN060

超过4000个机场的气象观测和天气预报(METAR&TAF报告)。

可查询的气象台以黄色和红色小点在地图上表示。

将鼠标移到小点上方,可查看气象台名称。

然后点击查看天气观测和预报。

如需切换地图:点击带黑十字的绿色按钮放大地图;点击带横线的绿色按钮缩小地图;或者点击绿色箭头查看邻近地区的地图。


METAR-TAF: